createdAt,value
2022-08-31T00:00:11.025Z,16.59
2022-08-31T00:02:57.138Z,16.59
2022-08-31T00:05:23.991Z,16.57
2022-08-31T00:07:51.748Z,16.59
2022-08-31T00:10:20.441Z,16.56
2022-08-31T00:12:59.818Z,16.51
2022-08-31T00:15:27.537Z,16.47
2022-08-31T00:17:56.183Z,16.47
2022-08-31T00:20:33.602Z,16.40
2022-08-31T00:23:05.886Z,16.34
2022-08-31T00:28:15.551Z,16.39
2022-08-31T00:30:43.144Z,16.36
2022-08-31T00:33:11.662Z,16.33
2022-08-31T00:35:41.495Z,16.32
2022-08-31T00:38:09.509Z,16.26
2022-08-31T00:40:38.088Z,16.25
2022-08-31T00:43:12.475Z,16.24
2022-08-31T00:45:39.087Z,16.22
2022-08-31T00:48:05.643Z,16.17
2022-08-31T00:50:32.265Z,16.15
2022-08-31T00:53:00.439Z,16.13
2022-08-31T00:55:35.945Z,16.10
2022-08-31T00:58:05.671Z,16.09
2022-08-31T01:03:13.092Z,16.03
2022-08-31T01:05:40.167Z,15.97
2022-08-31T01:08:07.052Z,15.96
2022-08-31T01:10:37.278Z,15.92
2022-08-31T01:13:04.677Z,15.91
2022-08-31T01:15:31.831Z,15.88
2022-08-31T01:18:01.606Z,15.85
2022-08-31T01:20:35.183Z,15.79
2022-08-31T01:23:21.832Z,15.76
2022-08-31T01:25:49.450Z,15.74
2022-08-31T01:28:16.392Z,15.73
2022-08-31T01:30:43.905Z,15.72
2022-08-31T01:33:13.237Z,15.69
2022-08-31T01:35:42.736Z,15.67
2022-08-31T01:38:19.188Z,15.65
2022-08-31T01:40:50.943Z,15.62
2022-08-31T01:43:17.766Z,15.57
2022-08-31T01:45:44.442Z,15.55
2022-08-31T01:48:11.200Z,15.52
2022-08-31T01:50:37.698Z,15.50
2022-08-31T01:53:04.397Z,15.45
2022-08-31T01:55:31.119Z,15.42
2022-08-31T01:57:59.021Z,15.43
2022-08-31T02:00:27.063Z,15.36
2022-08-31T02:02:53.756Z,15.35
2022-08-31T02:05:20.348Z,15.33
2022-08-31T02:07:47.129Z,15.32
2022-08-31T02:10:13.851Z,15.28
2022-08-31T02:12:40.437Z,15.23
2022-08-31T02:15:15.262Z,15.24
2022-08-31T02:17:41.782Z,15.19
2022-08-31T02:20:10.354Z,15.19
2022-08-31T02:22:36.861Z,15.12
2022-08-31T02:25:05.629Z,15.05
2022-08-31T02:30:19.027Z,15.03
2022-08-31T02:32:45.614Z,15.01
2022-08-31T02:35:12.661Z,14.99
2022-08-31T02:37:39.173Z,14.93
2022-08-31T02:40:11.936Z,14.88
2022-08-31T02:42:52.914Z,14.85
2022-08-31T02:45:20.745Z,14.81
2022-08-31T02:47:47.382Z,14.78
2022-08-31T02:50:13.889Z,14.80
2022-08-31T02:52:40.404Z,14.75
2022-08-31T02:55:07.361Z,14.75
2022-08-31T02:57:33.863Z,14.76
2022-08-31T03:00:00.394Z,14.73
2022-08-31T03:02:32.076Z,14.70
2022-08-31T03:05:01.739Z,14.69
2022-08-31T03:07:28.283Z,14.65
2022-08-31T03:09:54.975Z,14.63
2022-08-31T03:12:21.471Z,14.57
2022-08-31T03:14:48.024Z,14.54
2022-08-31T03:17:14.549Z,14.50
2022-08-31T03:19:41.079Z,14.50
2022-08-31T03:22:07.600Z,14.44
2022-08-31T03:24:34.104Z,14.41
2022-08-31T03:27:00.634Z,14.40
2022-08-31T03:29:27.205Z,14.40
2022-08-31T03:31:53.882Z,14.37
2022-08-31T03:34:20.544Z,14.37
2022-08-31T03:36:47.193Z,14.37
2022-08-31T03:39:13.695Z,14.34
2022-08-31T03:41:40.314Z,14.33
2022-08-31T03:44:06.894Z,14.32
2022-08-31T03:46:33.718Z,14.32
2022-08-31T03:49:01.526Z,14.32
2022-08-31T03:51:28.936Z,14.26
2022-08-31T03:53:55.604Z,14.26
2022-08-31T03:56:22.589Z,14.28
2022-08-31T03:58:49.471Z,14.24
2022-08-31T04:01:16.137Z,14.25
2022-08-31T04:03:42.754Z,14.22
2022-08-31T04:06:10.764Z,14.21
2022-08-31T04:08:38.250Z,14.22
2022-08-31T04:11:13.570Z,14.21
2022-08-31T04:13:40.871Z,14.18
2022-08-31T04:16:09.570Z,14.13
2022-08-31T04:18:36.843Z,14.14
2022-08-31T04:21:03.813Z,14.10
2022-08-31T04:23:30.438Z,14.09
2022-08-31T04:25:58.024Z,14.10
2022-08-31T04:28:25.270Z,14.06
2022-08-31T04:30:52.196Z,14.07
2022-08-31T04:33:18.935Z,14.04
2022-08-31T04:35:46.141Z,14.02
2022-08-31T04:38:12.658Z,13.99
2022-08-31T04:40:40.849Z,13.99
2022-08-31T04:43:07.469Z,14.17
2022-08-31T04:45:34.145Z,14.27
2022-08-31T04:48:01.064Z,14.30
2022-08-31T04:50:27.647Z,14.37
2022-08-31T04:53:03.053Z,14.40
2022-08-31T04:55:30.169Z,14.50
2022-08-31T04:57:57.164Z,14.53
2022-08-31T05:00:24.294Z,14.48
2022-08-31T05:02:52.801Z,14.57
2022-08-31T05:05:19.610Z,14.52
2022-08-31T05:07:46.273Z,14.51
2022-08-31T05:10:12.901Z,14.43
2022-08-31T05:12:39.550Z,14.39
2022-08-31T05:15:06.764Z,14.42
2022-08-31T05:17:33.271Z,14.33
2022-08-31T05:19:59.814Z,14.38
2022-08-31T05:22:26.402Z,14.48
2022-08-31T05:24:52.909Z,14.55
2022-08-31T05:27:19.545Z,14.53
2022-08-31T05:32:26.708Z,14.57
2022-08-31T05:34:53.483Z,14.59
2022-08-31T05:37:20.029Z,14.70
2022-08-31T05:39:50.899Z,14.74
2022-08-31T05:42:17.515Z,14.74
2022-08-31T05:44:44.180Z,14.83
2022-08-31T05:47:10.740Z,14.79
2022-08-31T05:49:37.403Z,14.91
2022-08-31T05:52:07.850Z,14.93
2022-08-31T05:54:35.555Z,14.91
2022-08-31T05:57:03.034Z,14.93
2022-08-31T05:59:31.101Z,14.89
2022-08-31T06:01:58.237Z,15.01
2022-08-31T06:04:25.002Z,15.09
2022-08-31T06:06:52.408Z,15.15
2022-08-31T06:09:19.015Z,15.14
2022-08-31T06:11:46.122Z,15.24
2022-08-31T06:14:13.099Z,15.34
2022-08-31T06:16:40.257Z,15.44
2022-08-31T06:19:07.283Z,15.50
2022-08-31T06:21:37.316Z,15.53
2022-08-31T06:24:06.084Z,15.61
2022-08-31T06:26:34.455Z,15.64
2022-08-31T06:29:03.604Z,15.64
2022-08-31T06:31:37.467Z,15.84
2022-08-31T06:34:07.000Z,15.90
2022-08-31T06:36:33.845Z,16.05
2022-08-31T06:39:01.349Z,16.03
2022-08-31T06:41:35.669Z,16.16
2022-08-31T06:44:05.944Z,16.20
2022-08-31T06:46:34.165Z,16.25
2022-08-31T06:49:00.850Z,16.37
2022-08-31T06:51:32.054Z,16.41
2022-08-31T06:54:11.345Z,16.58
2022-08-31T06:56:45.377Z,16.70
2022-08-31T06:59:12.769Z,16.81
2022-08-31T07:01:39.889Z,16.78
2022-08-31T07:04:08.936Z,16.86
2022-08-31T07:06:38.100Z,16.94
2022-08-31T07:09:07.150Z,17.09
2022-08-31T07:11:42.174Z,17.17
2022-08-31T07:14:12.619Z,17.34
2022-08-31T07:16:39.479Z,17.46
2022-08-31T07:19:06.872Z,17.49
2022-08-31T07:21:41.705Z,17.51
2022-08-31T07:24:08.335Z,17.69
2022-08-31T07:26:40.746Z,17.76
2022-08-31T07:29:08.323Z,17.88
2022-08-31T07:31:46.477Z,17.94
2022-08-31T07:34:21.767Z,17.98
2022-08-31T07:37:06.634Z,17.95
2022-08-31T07:39:53.622Z,18.03
2022-08-31T07:42:24.482Z,18.06
2022-08-31T07:44:53.382Z,18.27
2022-08-31T07:47:22.668Z,18.39
2022-08-31T07:49:52.627Z,18.54
2022-08-31T07:52:24.017Z,18.58
2022-08-31T07:54:51.757Z,18.66
2022-08-31T07:57:19.058Z,18.78
2022-08-31T07:59:47.137Z,18.91
2022-08-31T08:02:17.692Z,19.01
2022-08-31T08:04:44.491Z,19.13
2022-08-31T08:07:12.314Z,19.16
2022-08-31T08:09:38.906Z,19.42
2022-08-31T08:12:08.550Z,19.58
2022-08-31T08:14:36.747Z,19.53
2022-08-31T08:17:05.661Z,19.64
2022-08-31T08:19:33.754Z,19.63
2022-08-31T08:22:02.838Z,19.81
2022-08-31T08:24:31.588Z,20.48
2022-08-31T08:26:59.425Z,21.01
2022-08-31T08:29:26.785Z,21.66
2022-08-31T08:31:54.253Z,21.75
2022-08-31T08:34:29.583Z,21.88
2022-08-31T08:36:59.613Z,22.33
2022-08-31T08:39:26.347Z,22.27
2022-08-31T08:41:54.879Z,22.05
2022-08-31T08:44:22.546Z,21.74
2022-08-31T08:46:54.786Z,21.64
2022-08-31T08:49:32.420Z,21.61
2022-08-31T08:52:03.320Z,21.61
2022-08-31T08:54:33.364Z,21.85
2022-08-31T08:57:01.633Z,21.77
2022-08-31T08:59:28.775Z,22.36
2022-08-31T09:02:01.955Z,22.94
2022-08-31T09:04:59.735Z,23.97
2022-08-31T09:07:54.982Z,24.59
2022-08-31T09:10:31.003Z,24.84
2022-08-31T09:13:03.565Z,25.02
2022-08-31T09:15:39.073Z,25.17
2022-08-31T09:18:10.449Z,25.64
2022-08-31T09:20:36.955Z,25.06
2022-08-31T09:23:07.920Z,25.32
2022-08-31T09:25:54.680Z,25.45
2022-08-31T09:28:48.313Z,25.54
2022-08-31T09:31:42.378Z,25.41
2022-08-31T09:34:28.514Z,25.48
2022-08-31T09:37:16.154Z,26.01
2022-08-31T09:39:48.132Z,26.04
2022-08-31T09:42:34.862Z,26.64
2022-08-31T09:45:05.060Z,26.71
2022-08-31T09:47:53.532Z,26.59
2022-08-31T09:50:45.577Z,26.06
2022-08-31T09:53:40.889Z,26.62
2022-08-31T09:56:15.577Z,26.27
2022-08-31T09:58:46.255Z,26.68
2022-08-31T10:01:20.786Z,27.00
2022-08-31T10:03:48.013Z,27.24
2022-08-31T10:06:45.646Z,27.46
2022-08-31T10:09:37.735Z,26.95
2022-08-31T10:12:09.198Z,27.06
2022-08-31T10:14:43.719Z,27.08
2022-08-31T10:17:26.254Z,27.42
2022-08-31T10:20:06.664Z,27.12
2022-08-31T10:22:43.382Z,27.32
2022-08-31T10:25:14.486Z,27.23
2022-08-31T10:27:52.132Z,27.52
2022-08-31T10:30:22.408Z,27.47
2022-08-31T10:33:17.900Z,27.97
2022-08-31T10:35:57.618Z,28.25
2022-08-31T10:38:37.115Z,28.56
2022-08-31T10:41:27.815Z,29.21
2022-08-31T10:44:26.754Z,28.87
2022-08-31T10:46:58.402Z,28.88
2022-08-31T10:49:25.362Z,28.97
2022-08-31T10:52:17.255Z,29.23
2022-08-31T10:55:06.640Z,29.39
2022-08-31T10:57:51.530Z,29.30
2022-08-31T11:00:40.773Z,28.58
2022-08-31T11:03:36.968Z,28.81
2022-08-31T11:06:03.489Z,28.74
2022-08-31T11:08:35.752Z,28.44
2022-08-31T11:11:08.926Z,28.43
2022-08-31T11:13:52.204Z,28.71
2022-08-31T11:16:44.444Z,28.86
2022-08-31T11:19:38.038Z,28.78
2022-08-31T11:22:34.349Z,29.39
2022-08-31T11:25:30.851Z,29.15
2022-08-31T11:28:05.851Z,29.15
2022-08-31T11:30:41.366Z,29.24
2022-08-31T11:33:19.760Z,28.33
2022-08-31T11:35:49.906Z,28.11
2022-08-31T11:38:56.256Z,28.64
2022-08-31T11:41:48.873Z,28.26
2022-08-31T11:44:30.844Z,28.34
2022-08-31T11:47:05.184Z,28.23
2022-08-31T11:49:48.665Z,28.46
2022-08-31T11:52:21.992Z,28.66
2022-08-31T11:54:50.336Z,29.40
2022-08-31T11:57:24.812Z,28.97
2022-08-31T11:59:53.455Z,29.26
2022-08-31T12:02:20.039Z,29.17
2022-08-31T12:04:47.471Z,28.80
2022-08-31T12:07:16.996Z,29.71
2022-08-31T12:10:16.711Z,30.34
2022-08-31T12:12:52.328Z,30.24
2022-08-31T12:16:04.981Z,30.00
2022-08-31T12:18:43.882Z,29.23
2022-08-31T12:21:51.835Z,30.15
2022-08-31T12:24:49.412Z,29.85
2022-08-31T12:27:50.052Z,29.63
2022-08-31T12:30:19.573Z,29.85
2022-08-31T12:32:49.302Z,29.84
2022-08-31T12:35:19.193Z,30.34
2022-08-31T12:37:45.887Z,30.07
2022-08-31T12:40:20.659Z,30.40
2022-08-31T12:43:03.869Z,29.72
2022-08-31T12:45:47.366Z,30.29
2022-08-31T12:48:20.716Z,29.98
2022-08-31T12:51:09.518Z,29.84
2022-08-31T12:53:51.420Z,29.94
2022-08-31T12:56:32.663Z,30.48
2022-08-31T12:59:22.594Z,30.60
2022-08-31T13:01:50.603Z,30.16
2022-08-31T13:04:19.241Z,30.75
2022-08-31T13:06:48.260Z,30.78
2022-08-31T13:09:27.545Z,30.14
2022-08-31T13:11:57.118Z,29.99
2022-08-31T13:14:27.350Z,30.33
2022-08-31T13:16:55.353Z,30.60
2022-08-31T13:19:30.792Z,29.80
2022-08-31T13:22:00.131Z,29.71
2022-08-31T13:24:33.791Z,29.24
2022-08-31T13:27:17.340Z,28.96
2022-08-31T13:29:45.127Z,29.60
2022-08-31T13:32:32.939Z,29.63
2022-08-31T13:35:04.479Z,29.29
2022-08-31T13:37:35.124Z,29.51
2022-08-31T13:40:13.609Z,29.08
2022-08-31T13:42:43.540Z,28.86
2022-08-31T13:45:26.903Z,29.18
2022-08-31T13:48:13.203Z,29.28
2022-08-31T13:50:56.130Z,29.19
2022-08-31T13:53:41.302Z,29.44
2022-08-31T13:56:48.023Z,30.00
2022-08-31T13:59:22.151Z,29.55
2022-08-31T14:01:59.562Z,29.87
2022-08-31T14:04:44.145Z,29.18
2022-08-31T14:07:16.997Z,29.41
2022-08-31T14:10:00.271Z,28.99
2022-08-31T14:12:36.389Z,29.55
2022-08-31T14:15:09.002Z,29.72
2022-08-31T14:18:24.022Z,29.66
2022-08-31T14:20:39.208Z,29.86
2022-08-31T14:23:24.476Z,30.20
2022-08-31T14:25:55.719Z,30.31
2022-08-31T14:28:24.085Z,29.33
2022-08-31T14:30:51.449Z,29.80
2022-08-31T14:33:19.957Z,30.26
2022-08-31T14:35:46.975Z,30.61
2022-08-31T14:38:15.349Z,30.51
2022-08-31T14:40:45.562Z,30.38
2022-08-31T14:43:17.383Z,31.12
2022-08-31T14:45:44.577Z,31.71
2022-08-31T14:48:14.469Z,31.70
2022-08-31T14:50:41.104Z,32.91
2022-08-31T14:53:11.350Z,33.65
2022-08-31T14:55:40.427Z,34.46
2022-08-31T14:58:13.253Z,34.49
2022-08-31T15:00:49.830Z,34.97
2022-08-31T15:03:24.287Z,35.27
2022-08-31T15:05:51.307Z,35.20
2022-08-31T15:08:26.245Z,35.60
2022-08-31T15:11:06.127Z,34.57
2022-08-31T15:13:33.934Z,35.10
2022-08-31T15:16:03.982Z,35.45
2022-08-31T15:18:33.795Z,35.40
2022-08-31T15:21:02.175Z,34.77
2022-08-31T15:23:30.643Z,35.05
2022-08-31T15:26:06.581Z,34.68
2022-08-31T15:28:37.457Z,35.01
2022-08-31T15:31:27.841Z,35.17
2022-08-31T15:33:55.459Z,35.33
2022-08-31T15:36:24.878Z,35.72
2022-08-31T15:38:54.227Z,35.10
2022-08-31T15:41:21.688Z,34.31
2022-08-31T15:43:48.317Z,35.20
2022-08-31T15:46:14.933Z,35.26
2022-08-31T15:48:41.795Z,35.13
2022-08-31T15:51:18.508Z,35.92
2022-08-31T15:54:00.850Z,35.85
2022-08-31T15:56:34.432Z,35.21
2022-08-31T15:59:01.719Z,35.10
2022-08-31T16:01:28.298Z,34.91
2022-08-31T16:03:57.103Z,35.89
2022-08-31T16:06:27.980Z,35.33
2022-08-31T16:08:57.812Z,35.30
2022-08-31T16:11:27.010Z,34.93
2022-08-31T16:13:59.813Z,35.30
2022-08-31T16:16:30.982Z,35.16
2022-08-31T16:18:58.584Z,35.05
2022-08-31T16:21:27.211Z,34.85
2022-08-31T16:24:00.740Z,34.37
2022-08-31T16:26:30.104Z,34.02
2022-08-31T16:28:57.909Z,34.32
2022-08-31T16:31:25.585Z,34.87
2022-08-31T16:33:55.556Z,33.63
2022-08-31T16:36:27.220Z,33.55
2022-08-31T16:38:56.633Z,33.26
2022-08-31T16:41:26.379Z,33.15
2022-08-31T16:44:18.146Z,33.06
2022-08-31T16:46:44.666Z,32.10
2022-08-31T16:49:29.943Z,31.07
2022-08-31T16:51:56.531Z,30.28
2022-08-31T16:54:23.738Z,29.41
2022-08-31T16:56:52.159Z,28.53
2022-08-31T16:59:19.206Z,27.73
2022-08-31T17:01:46.362Z,27.51
2022-08-31T17:04:29.224Z,26.83
2022-08-31T17:07:03.164Z,26.08
2022-08-31T17:09:29.746Z,25.80
2022-08-31T17:11:59.148Z,25.48
2022-08-31T17:14:43.298Z,24.82
2022-08-31T17:17:12.416Z,24.74
2022-08-31T17:19:40.972Z,24.80
2022-08-31T17:22:09.228Z,24.76
2022-08-31T17:24:43.047Z,24.50
2022-08-31T17:27:09.847Z,24.43
2022-08-31T17:29:43.866Z,24.41
2022-08-31T17:32:12.648Z,24.43
2022-08-31T17:34:40.359Z,24.37
2022-08-31T17:37:14.356Z,24.09
2022-08-31T17:39:42.794Z,24.01
2022-08-31T17:42:09.619Z,23.97
2022-08-31T17:44:37.735Z,23.77
2022-08-31T17:47:05.353Z,23.68
2022-08-31T17:49:37.924Z,23.67
2022-08-31T17:52:07.895Z,23.51
2022-08-31T17:54:36.922Z,23.33
2022-08-31T17:57:05.619Z,23.08
2022-08-31T17:59:38.589Z,23.05
2022-08-31T18:02:21.066Z,22.86
2022-08-31T18:04:48.815Z,22.63
2022-08-31T18:07:15.778Z,22.68
2022-08-31T18:09:47.005Z,22.78
2022-08-31T18:12:15.571Z,22.55
2022-08-31T18:14:42.251Z,22.50
2022-08-31T18:17:10.883Z,22.40
2022-08-31T18:19:37.798Z,22.27
2022-08-31T18:22:04.439Z,22.20
2022-08-31T18:24:36.651Z,22.13
2022-08-31T18:27:07.025Z,22.07
2022-08-31T18:29:35.195Z,21.96
2022-08-31T18:32:04.285Z,21.83
2022-08-31T18:34:33.745Z,21.57
2022-08-31T18:37:00.667Z,21.50
2022-08-31T18:39:50.726Z,21.47
2022-08-31T18:42:34.719Z,21.34
2022-08-31T18:45:18.178Z,21.28
2022-08-31T18:48:07.005Z,21.21
2022-08-31T18:50:36.382Z,21.17
2022-08-31T18:53:04.689Z,21.10
2022-08-31T18:55:40.884Z,21.05
2022-08-31T18:58:07.545Z,21.04
2022-08-31T19:00:34.385Z,21.00
2022-08-31T19:03:02.597Z,20.96
2022-08-31T19:05:31.393Z,20.79
2022-08-31T19:08:00.245Z,20.81
2022-08-31T19:10:27.245Z,20.74
2022-08-31T19:12:56.863Z,20.75
2022-08-31T19:15:25.569Z,20.77
2022-08-31T19:18:01.815Z,20.58
2022-08-31T19:20:29.392Z,20.57
2022-08-31T19:22:56.239Z,20.56
2022-08-31T19:25:23.597Z,20.54
2022-08-31T19:27:51.275Z,20.45
2022-08-31T19:30:24.480Z,20.25
2022-08-31T19:32:54.037Z,20.30
2022-08-31T19:35:20.767Z,20.24
2022-08-31T19:37:50.870Z,20.05
2022-08-31T19:40:18.579Z,20.00
2022-08-31T19:45:44.921Z,19.96
2022-08-31T19:48:12.936Z,19.75
2022-08-31T19:50:41.980Z,19.65
2022-08-31T19:53:14.134Z,19.69
2022-08-31T19:55:50.166Z,19.62
2022-08-31T19:58:19.708Z,19.51
2022-08-31T20:00:47.999Z,19.48
2022-08-31T20:03:15.368Z,19.51
2022-08-31T20:05:43.500Z,19.50
2022-08-31T20:08:10.368Z,19.38
2022-08-31T20:10:41.762Z,19.38
2022-08-31T20:13:09.938Z,19.29
2022-08-31T20:15:41.640Z,19.25
2022-08-31T20:18:09.354Z,19.20
2022-08-31T20:20:45.093Z,19.13
2022-08-31T20:23:17.030Z,19.09
2022-08-31T20:25:45.189Z,18.92
2022-08-31T20:28:12.609Z,19.00
2022-08-31T20:30:41.032Z,18.97
2022-08-31T20:33:08.262Z,18.80
2022-08-31T20:35:36.442Z,18.75
2022-08-31T20:38:03.024Z,18.74
2022-08-31T20:40:29.773Z,18.69
2022-08-31T20:42:56.860Z,18.74
2022-08-31T20:45:23.635Z,18.68
2022-08-31T20:48:08.511Z,18.66
2022-08-31T20:50:35.275Z,18.64
2022-08-31T20:53:02.042Z,18.60
2022-08-31T20:55:28.584Z,18.59
2022-08-31T20:57:55.397Z,18.51
2022-08-31T21:00:21.965Z,18.47
2022-08-31T21:02:49.920Z,18.44
2022-08-31T21:08:05.588Z,18.39
2022-08-31T21:10:37.919Z,18.37
2022-08-31T21:13:10.287Z,18.28
2022-08-31T21:15:44.647Z,18.25
2022-08-31T21:18:12.240Z,18.27
2022-08-31T21:20:39.333Z,18.25
2022-08-31T21:23:07.867Z,18.21
2022-08-31T21:25:39.940Z,18.18
2022-08-31T21:28:08.637Z,18.10
2022-08-31T21:30:36.642Z,18.07
2022-08-31T21:33:03.197Z,18.03
2022-08-31T21:35:29.741Z,18.00
2022-08-31T21:37:57.734Z,17.98
2022-08-31T21:40:24.537Z,17.96
2022-08-31T21:42:51.106Z,17.90
2022-08-31T21:45:18.035Z,17.82
2022-08-31T21:47:44.637Z,17.80
2022-08-31T21:50:11.145Z,17.76
2022-08-31T21:52:37.667Z,17.74
2022-08-31T21:55:05.736Z,17.71
2022-08-31T21:57:32.453Z,17.68
2022-08-31T21:59:59.644Z,17.64
2022-08-31T22:02:26.640Z,17.55
2022-08-31T22:04:53.183Z,17.52
2022-08-31T22:07:19.667Z,17.48
2022-08-31T22:09:46.996Z,17.41
2022-08-31T22:12:18.218Z,17.41
2022-08-31T22:14:44.919Z,17.37
2022-08-31T22:17:12.942Z,17.33
2022-08-31T22:19:40.975Z,17.31
2022-08-31T22:22:11.654Z,17.31
2022-08-31T22:24:40.162Z,17.29
2022-08-31T22:27:09.068Z,17.19
2022-08-31T22:29:37.144Z,17.19
2022-08-31T22:32:10.621Z,17.16
2022-08-31T22:34:37.826Z,17.22
2022-08-31T22:37:06.046Z,17.28
2022-08-31T22:39:32.961Z,17.31
2022-08-31T22:42:01.472Z,17.36
2022-08-31T22:44:31.229Z,17.35
2022-08-31T22:46:57.916Z,17.34
2022-08-31T22:49:25.866Z,17.39
2022-08-31T22:51:53.026Z,17.39
2022-08-31T22:54:20.641Z,17.31
2022-08-31T22:56:47.798Z,17.33
2022-08-31T22:59:18.417Z,17.30
2022-08-31T23:01:55.030Z,17.28
2022-08-31T23:04:23.817Z,17.29
2022-08-31T23:06:51.722Z,17.15
2022-08-31T23:09:21.213Z,17.14
2022-08-31T23:11:51.442Z,17.08
2022-08-31T23:14:20.931Z,17.02
2022-08-31T23:16:55.064Z,17.00
2022-08-31T23:19:25.647Z,16.88
2022-08-31T23:21:57.666Z,16.86
2022-08-31T23:24:31.312Z,16.81
2022-08-31T23:27:03.962Z,16.73
2022-08-31T23:29:40.034Z,16.59
2022-08-31T23:32:11.244Z,16.53
2022-08-31T23:34:38.687Z,16.48
2022-08-31T23:37:08.630Z,16.40
2022-08-31T23:39:37.617Z,16.36
2022-08-31T23:42:04.641Z,16.28
2022-08-31T23:44:31.207Z,16.20
2022-08-31T23:46:58.022Z,16.11
2022-08-31T23:49:24.615Z,16.13
2022-08-31T23:51:51.175Z,16.07
2022-08-31T23:54:18.276Z,15.99
2022-08-31T23:56:47.570Z,15.95
2022-08-31T23:59:17.584Z,15.92
